createdAt,value
2022-10-01T00:02:08.214Z,13.57
2022-10-01T00:04:36.409Z,12.10
2022-10-01T00:07:04.587Z,11.40
2022-10-01T00:09:32.445Z,12.55
2022-10-01T00:12:00.473Z,12.90
2022-10-01T00:14:28.702Z,13.05
2022-10-01T00:16:58.453Z,13.23
2022-10-01T00:19:27.946Z,11.93
2022-10-01T00:21:55.513Z,13.85
2022-10-01T00:24:23.220Z,13.18
2022-10-01T00:26:50.767Z,11.18
2022-10-01T00:29:18.449Z,12.07
2022-10-01T00:31:46.250Z,12.63
2022-10-01T00:34:15.414Z,12.10
2022-10-01T00:36:43.258Z,14.45
2022-10-01T00:39:12.190Z,12.85
2022-10-01T00:41:40.354Z,13.10
2022-10-01T00:44:30.953Z,14.40
2022-10-01T00:47:04.834Z,15.20
2022-10-01T00:49:37.893Z,15.27
2022-10-01T00:52:08.795Z,17.40
2022-10-01T00:54:43.595Z,14.43
2022-10-01T00:57:14.165Z,13.63
2022-10-01T00:59:41.884Z,14.68
2022-10-01T01:02:10.108Z,15.02
2022-10-01T01:04:40.310Z,16.48
2022-10-01T01:07:09.079Z,17.88
2022-10-01T01:09:40.034Z,18.20
2022-10-01T01:12:18.778Z,17.95
2022-10-01T01:14:58.606Z,15.35
2022-10-01T01:17:36.290Z,15.68
2022-10-01T01:20:32.840Z,13.68
2022-10-01T01:23:11.294Z,15.55
2022-10-01T01:25:49.632Z,15.70
2022-10-01T01:28:24.328Z,17.63
2022-10-01T01:30:58.302Z,21.48
2022-10-01T01:33:28.934Z,19.67
2022-10-01T01:36:01.311Z,20.57
2022-10-01T01:38:33.564Z,20.42
2022-10-01T01:41:03.226Z,22.00
2022-10-01T01:43:37.974Z,20.33
2022-10-01T01:46:07.810Z,20.35
2022-10-01T01:48:37.717Z,20.63
2022-10-01T01:51:12.195Z,21.85
2022-10-01T01:53:41.142Z,20.40
2022-10-01T01:56:09.290Z,21.10
2022-10-01T01:58:39.377Z,21.10
2022-10-01T02:01:07.301Z,18.33
2022-10-01T02:03:35.621Z,18.20
2022-10-01T02:06:13.340Z,21.80
2022-10-01T02:08:49.415Z,19.13
2022-10-01T02:11:26.464Z,19.33
2022-10-01T02:14:04.422Z,18.48
2022-10-01T02:16:43.044Z,19.98
2022-10-01T02:19:21.311Z,24.10
2022-10-01T02:21:58.884Z,23.65
2022-10-01T02:24:36.863Z,21.27
2022-10-01T02:27:09.467Z,20.88
2022-10-01T02:29:40.454Z,23.48
2022-10-01T02:32:11.145Z,20.10
2022-10-01T02:34:40.474Z,21.45
2022-10-01T02:37:10.059Z,22.45
2022-10-01T02:39:40.297Z,19.63
2022-10-01T02:42:12.500Z,22.48
2022-10-01T02:44:45.668Z,20.58
2022-10-01T02:47:18.338Z,20.80
2022-10-01T02:49:47.633Z,24.33
2022-10-01T02:54:55.221Z,29.45
2022-10-01T02:57:23.568Z,34.55
2022-10-01T02:59:54.138Z,33.42
2022-10-01T03:02:22.191Z,35.65
2022-10-01T03:04:51.418Z,43.10
2022-10-01T03:07:19.420Z,37.15
2022-10-01T03:09:47.233Z,36.25
2022-10-01T03:12:15.147Z,38.50
2022-10-01T03:14:43.427Z,40.30
2022-10-01T03:17:14.168Z,45.22
2022-10-01T03:19:42.626Z,45.80
2022-10-01T03:22:16.654Z,40.85
2022-10-01T03:24:44.501Z,46.00
2022-10-01T03:27:12.085Z,45.88
2022-10-01T03:29:41.742Z,46.53
2022-10-01T03:32:09.324Z,41.85
2022-10-01T03:34:38.513Z,37.38
2022-10-01T03:37:06.890Z,38.03
2022-10-01T03:39:35.111Z,39.40
2022-10-01T03:42:03.041Z,41.03
2022-10-01T03:44:30.896Z,44.63
2022-10-01T03:46:58.621Z,45.17
2022-10-01T03:49:26.231Z,45.20
2022-10-01T03:51:56.259Z,49.85
2022-10-01T03:54:26.715Z,48.42
2022-10-01T03:56:54.277Z,45.95
2022-10-01T03:59:22.299Z,46.42
2022-10-01T04:01:49.960Z,45.45
2022-10-01T04:04:17.979Z,44.00
2022-10-01T04:06:45.881Z,44.53
2022-10-01T04:09:14.902Z,41.08
2022-10-01T04:11:42.881Z,38.50
2022-10-01T04:14:10.598Z,45.05
2022-10-01T04:16:38.710Z,46.70
2022-10-01T04:19:07.187Z,46.28
2022-10-01T04:21:35.207Z,46.28
2022-10-01T04:24:03.011Z,47.15
2022-10-01T04:26:32.047Z,46.45
2022-10-01T04:28:59.757Z,46.97
2022-10-01T04:31:27.406Z,44.13
2022-10-01T04:33:57.007Z,42.78
2022-10-01T04:36:25.895Z,48.40
2022-10-01T04:38:57.858Z,46.42
2022-10-01T04:41:27.741Z,49.95
2022-10-01T04:43:59.586Z,46.70
2022-10-01T04:46:27.834Z,43.30
2022-10-01T04:48:55.441Z,41.97
2022-10-01T04:51:23.029Z,41.30
2022-10-01T04:53:50.832Z,43.55
2022-10-01T04:56:18.431Z,46.63
2022-10-01T04:58:46.582Z,45.67
2022-10-01T05:01:15.716Z,48.72
2022-10-01T05:03:43.356Z,50.60
2022-10-01T05:06:11.779Z,54.20
2022-10-01T05:08:39.442Z,59.38
2022-10-01T05:11:07.181Z,65.78
2022-10-01T05:13:34.975Z,76.20
2022-10-01T05:16:03.146Z,88.35
2022-10-01T05:18:32.385Z,98.35
2022-10-01T05:21:04.631Z,104.47
2022-10-01T05:23:32.632Z,106.70
2022-10-01T05:26:01.165Z,110.10
2022-10-01T05:28:29.302Z,105.93
2022-10-01T05:30:59.323Z,110.63
2022-10-01T05:33:27.304Z,118.03
2022-10-01T05:35:56.674Z,127.82
2022-10-01T05:38:24.624Z,124.25
2022-10-01T05:40:52.459Z,128.48
2022-10-01T05:43:20.292Z,134.65
2022-10-01T05:45:47.973Z,131.75
2022-10-01T05:48:15.759Z,129.32
2022-10-01T05:50:43.789Z,132.27
2022-10-01T05:53:12.828Z,132.23
2022-10-01T05:55:40.486Z,125.10
2022-10-01T05:58:10.230Z,120.38
2022-10-01T06:00:39.426Z,115.82
2022-10-01T06:03:07.719Z,109.70
2022-10-01T06:05:36.740Z,100.90
2022-10-01T06:08:05.821Z,89.78
2022-10-01T06:10:36.931Z,85.47
2022-10-01T06:13:05.136Z,80.10
2022-10-01T06:15:34.656Z,78.65
2022-10-01T06:18:02.735Z,79.40
2022-10-01T06:20:32.476Z,75.50
2022-10-01T06:23:00.378Z,67.78
2022-10-01T06:25:28.929Z,70.25
2022-10-01T06:27:59.688Z,66.18
2022-10-01T06:30:29.192Z,66.57
2022-10-01T06:33:00.053Z,58.75
2022-10-01T06:35:27.622Z,52.70
2022-10-01T06:37:55.464Z,45.05
2022-10-01T06:40:23.481Z,43.13
2022-10-01T06:42:55.988Z,48.50
2022-10-01T06:45:25.968Z,49.35
2022-10-01T06:47:54.118Z,47.78
2022-10-01T06:50:21.752Z,33.28
2022-10-01T06:52:49.831Z,29.92
2022-10-01T06:55:18.288Z,29.33
2022-10-01T06:57:46.682Z,33.45
2022-10-01T07:00:15.740Z,26.73
2022-10-01T07:02:44.747Z,25.13
2022-10-01T07:05:12.667Z,21.77
2022-10-01T07:07:40.823Z,19.13
2022-10-01T07:10:09.947Z,15.23
2022-10-01T07:12:38.290Z,16.90
2022-10-01T07:15:07.054Z,17.08
2022-10-01T07:17:42.531Z,16.63
2022-10-01T07:20:12.100Z,17.50
2022-10-01T07:22:39.678Z,18.02
2022-10-01T07:25:09.144Z,16.05
2022-10-01T07:27:38.103Z,14.88
2022-10-01T07:30:11.307Z,8.57
2022-10-01T07:32:39.409Z,8.30
2022-10-01T07:35:07.533Z,6.82
2022-10-01T07:37:39.394Z,9.35
2022-10-01T07:40:07.843Z,8.80
2022-10-01T07:42:36.374Z,8.02
2022-10-01T07:45:04.581Z,6.85
2022-10-01T07:47:32.449Z,8.00
2022-10-01T07:50:00.290Z,6.85
2022-10-01T07:52:27.985Z,5.78
2022-10-01T07:54:57.193Z,4.68
2022-10-01T07:57:24.752Z,5.38
2022-10-01T07:59:55.656Z,5.32
2022-10-01T08:02:24.079Z,6.47
2022-10-01T08:04:52.001Z,6.38
2022-10-01T08:07:19.720Z,7.10
2022-10-01T08:09:47.334Z,7.45
2022-10-01T08:12:16.692Z,7.20
2022-10-01T08:14:44.761Z,7.05
2022-10-01T08:17:12.855Z,8.27
2022-10-01T08:19:40.568Z,7.40
2022-10-01T08:22:08.363Z,7.60
2022-10-01T08:24:35.908Z,7.82
2022-10-01T08:27:03.870Z,7.70
2022-10-01T08:29:33.722Z,8.02
2022-10-01T08:32:02.055Z,7.25
2022-10-01T08:34:29.826Z,7.32
2022-10-01T08:36:57.495Z,7.13
2022-10-01T08:39:25.211Z,8.70
2022-10-01T08:42:03.063Z,7.00
2022-10-01T08:44:38.867Z,5.60
2022-10-01T08:47:14.642Z,4.90
2022-10-01T08:49:48.394Z,5.63
2022-10-01T08:52:21.212Z,6.28
2022-10-01T08:54:54.280Z,7.07
2022-10-01T08:57:25.897Z,6.45
2022-10-01T08:59:58.542Z,6.90
2022-10-01T09:02:29.424Z,7.63
2022-10-01T09:05:01.880Z,7.68
2022-10-01T09:08:00.075Z,6.50
2022-10-01T09:10:40.704Z,6.75
2022-10-01T09:13:31.737Z,6.75
2022-10-01T09:16:11.591Z,5.60
2022-10-01T09:18:50.100Z,5.90
2022-10-01T09:21:19.352Z,7.20
2022-10-01T09:24:01.923Z,5.60
2022-10-01T09:26:30.233Z,7.35
2022-10-01T09:29:01.020Z,9.25
2022-10-01T09:31:37.066Z,6.95
2022-10-01T09:34:12.806Z,5.50
2022-10-01T09:36:56.682Z,4.68
2022-10-01T09:39:29.892Z,4.63
2022-10-01T09:41:57.887Z,5.07
2022-10-01T09:44:28.557Z,4.75
2022-10-01T09:46:58.259Z,5.57
2022-10-01T09:49:32.595Z,5.28
2022-10-01T09:52:06.262Z,5.63
2022-10-01T09:54:39.538Z,6.85
2022-10-01T09:57:11.822Z,6.40
2022-10-01T09:59:47.398Z,6.68
2022-10-01T10:02:28.338Z,7.05
2022-10-01T10:05:02.952Z,6.95
2022-10-01T10:07:33.134Z,8.07
2022-10-01T10:10:09.298Z,7.75
2022-10-01T10:12:37.514Z,9.32
2022-10-01T10:15:14.350Z,9.23
2022-10-01T10:17:45.524Z,6.88
2022-10-01T10:20:23.654Z,6.32
2022-10-01T10:22:51.946Z,5.60
2022-10-01T10:25:23.012Z,5.60
2022-10-01T10:27:53.482Z,5.00
2022-10-01T10:30:22.697Z,4.65
2022-10-01T10:32:53.703Z,4.15
2022-10-01T10:35:25.443Z,4.25
2022-10-01T10:37:55.964Z,3.78
2022-10-01T10:42:59.356Z,3.65
2022-10-01T10:45:32.311Z,2.60
2022-10-01T10:48:04.459Z,3.50
2022-10-01T10:50:36.078Z,2.85
2022-10-01T10:55:40.251Z,2.38
2022-10-01T10:58:11.374Z,2.88
2022-10-01T11:00:46.261Z,2.78
2022-10-01T11:03:20.291Z,2.40
2022-10-01T11:05:48.316Z,2.40
2022-10-01T11:08:23.897Z,2.20
2022-10-01T11:11:05.831Z,2.10
2022-10-01T11:13:52.122Z,3.05
2022-10-01T11:16:48.027Z,3.20
2022-10-01T11:19:38.617Z,3.85
2022-10-01T11:22:19.949Z,3.88
2022-10-01T11:25:05.647Z,3.88
2022-10-01T11:27:41.766Z,5.50
2022-10-01T11:30:16.839Z,6.07
2022-10-01T11:32:55.578Z,5.60
2022-10-01T11:35:35.931Z,6.30
2022-10-01T11:38:26.451Z,6.43
2022-10-01T11:40:58.113Z,5.63
2022-10-01T11:43:31.451Z,3.30
2022-10-01T11:46:03.353Z,3.22
2022-10-01T11:48:38.159Z,4.07
2022-10-01T11:51:12.072Z,5.65
2022-10-01T11:53:43.081Z,5.47
2022-10-01T11:56:17.580Z,3.55
2022-10-01T11:58:50.973Z,5.32
2022-10-01T12:01:26.768Z,4.95
2022-10-01T12:04:19.929Z,6.13
2022-10-01T12:06:56.194Z,4.85
2022-10-01T12:09:29.992Z,5.18
2022-10-01T12:12:03.740Z,4.47
2022-10-01T12:14:37.675Z,4.97
2022-10-01T12:17:15.206Z,4.93
2022-10-01T12:19:48.515Z,5.05
2022-10-01T12:22:24.807Z,4.47
2022-10-01T12:24:53.410Z,4.20
2022-10-01T12:27:39.450Z,4.38
2022-10-01T12:30:11.119Z,3.80
2022-10-01T12:32:55.645Z,3.70
2022-10-01T12:35:38.549Z,4.20
2022-10-01T12:38:19.550Z,4.15
2022-10-01T12:40:56.047Z,8.25
2022-10-01T12:43:45.899Z,10.93
2022-10-01T12:46:24.134Z,12.10
2022-10-01T12:49:00.081Z,5.10
2022-10-01T12:51:40.670Z,4.95
2022-10-01T12:54:28.566Z,4.30
2022-10-01T12:57:03.705Z,4.72
2022-10-01T12:59:42.237Z,4.43
2022-10-01T13:02:30.465Z,5.57
2022-10-01T13:05:15.515Z,5.68
2022-10-01T13:07:54.406Z,5.63
2022-10-01T13:10:45.270Z,5.90
2022-10-01T13:13:18.014Z,5.82
2022-10-01T13:15:48.940Z,5.53
2022-10-01T13:18:30.599Z,5.05
2022-10-01T13:21:09.981Z,5.45
2022-10-01T13:23:46.443Z,5.60
2022-10-01T13:26:20.214Z,6.43
2022-10-01T13:29:14.808Z,5.63
2022-10-01T13:31:55.510Z,5.97
2022-10-01T13:34:27.913Z,6.32
2022-10-01T13:36:56.946Z,5.93
2022-10-01T13:39:37.670Z,5.90
2022-10-01T13:42:16.180Z,6.40
2022-10-01T13:44:43.929Z,6.50
2022-10-01T13:47:12.314Z,6.93
2022-10-01T13:49:40.696Z,6.63
2022-10-01T13:52:19.993Z,8.80
2022-10-01T13:54:51.187Z,7.30
2022-10-01T13:57:32.271Z,8.18
2022-10-01T14:00:05.921Z,10.15
2022-10-01T14:02:36.380Z,10.52
2022-10-01T14:05:27.141Z,8.73
2022-10-01T14:08:03.352Z,7.90
2022-10-01T14:10:36.529Z,7.22
2022-10-01T14:13:09.262Z,8.73
2022-10-01T14:15:43.290Z,7.40
2022-10-01T14:18:16.040Z,6.07
2022-10-01T14:20:53.894Z,62.45
2022-10-01T14:23:30.834Z,52.00
2022-10-01T14:26:07.033Z,38.13
2022-10-01T14:28:52.186Z,17.33
2022-10-01T14:31:29.485Z,8.13
2022-10-01T14:34:27.934Z,8.07
2022-10-01T14:36:56.954Z,4.93
2022-10-01T14:39:26.389Z,4.70
2022-10-01T14:41:57.255Z,5.20
2022-10-01T14:44:28.916Z,4.68
2022-10-01T14:46:58.740Z,5.40
2022-10-01T14:49:28.812Z,4.35
2022-10-01T14:52:00.745Z,4.90
2022-10-01T14:54:30.116Z,6.50
2022-10-01T14:56:58.535Z,58.65
2022-10-01T14:59:34.234Z,74.85
2022-10-01T15:02:04.555Z,74.43
2022-10-01T15:04:32.587Z,33.17
2022-10-01T15:07:05.012Z,25.02
2022-10-01T15:09:34.153Z,20.25
2022-10-01T15:12:05.185Z,12.35
2022-10-01T15:14:36.957Z,18.60
2022-10-01T15:17:05.702Z,21.17
2022-10-01T15:19:38.634Z,19.15
2022-10-01T15:22:07.191Z,18.63
2022-10-01T15:24:40.344Z,20.45
2022-10-01T15:27:09.139Z,25.60
2022-10-01T15:29:39.468Z,27.02
2022-10-01T15:32:07.996Z,29.08
2022-10-01T15:34:36.824Z,33.15
2022-10-01T15:37:06.565Z,37.90
2022-10-01T15:39:38.455Z,39.97
2022-10-01T15:45:12.215Z,43.47
2022-10-01T15:47:40.510Z,48.05
2022-10-01T15:50:17.901Z,50.15
2022-10-01T15:52:51.726Z,45.78
2022-10-01T15:55:24.140Z,45.38
2022-10-01T15:57:56.714Z,83.90
2022-10-01T16:00:29.419Z,61.25
2022-10-01T16:02:58.123Z,48.53
2022-10-01T16:05:33.043Z,45.03
2022-10-01T16:08:01.116Z,47.22
2022-10-01T16:10:33.835Z,41.63
2022-10-01T16:13:37.712Z,38.08
2022-10-01T16:16:20.401Z,35.03
2022-10-01T16:18:51.702Z,35.63
2022-10-01T16:21:22.982Z,37.00
2022-10-01T16:23:54.798Z,34.00
2022-10-01T16:26:35.471Z,33.37
2022-10-01T16:29:06.784Z,28.48
2022-10-01T16:34:11.592Z,29.88
2022-10-01T16:36:40.595Z,28.48
2022-10-01T16:39:08.596Z,27.48
2022-10-01T16:41:36.499Z,29.95
2022-10-01T16:44:05.015Z,28.30
2022-10-01T16:46:33.439Z,27.25
2022-10-01T16:49:10.013Z,25.95
2022-10-01T16:51:37.787Z,27.63
2022-10-01T16:54:05.452Z,26.67
2022-10-01T16:56:33.693Z,24.75
2022-10-01T16:59:01.337Z,26.15
2022-10-01T17:01:29.517Z,23.92
2022-10-01T17:03:57.386Z,24.05
2022-10-01T17:06:26.373Z,19.42
2022-10-01T17:08:54.298Z,19.85
2022-10-01T17:11:24.228Z,19.35
2022-10-01T17:13:51.777Z,18.30
2022-10-01T17:16:24.611Z,17.35
2022-10-01T17:18:52.468Z,16.52
2022-10-01T17:21:20.332Z,14.85
2022-10-01T17:23:53.329Z,14.40
2022-10-01T17:26:22.520Z,14.27
2022-10-01T17:28:50.056Z,13.30
2022-10-01T17:31:18.485Z,14.30
2022-10-01T17:33:46.358Z,14.52
2022-10-01T17:36:14.007Z,16.08
2022-10-01T17:38:43.748Z,15.60
2022-10-01T17:41:13.886Z,15.32
2022-10-01T17:43:42.273Z,12.43
2022-10-01T17:46:09.874Z,11.85
2022-10-01T17:48:37.692Z,11.57
2022-10-01T17:51:08.070Z,11.38
2022-10-01T17:53:42.636Z,11.77
2022-10-01T17:56:15.273Z,10.85
2022-10-01T17:58:45.683Z,11.00
2022-10-01T18:01:16.600Z,9.95
2022-10-01T18:03:44.438Z,9.55
2022-10-01T18:06:12.133Z,8.57
2022-10-01T18:08:54.777Z,8.20
2022-10-01T18:11:28.544Z,7.88
2022-10-01T18:13:56.588Z,8.10
2022-10-01T18:16:25.793Z,8.57
2022-10-01T18:21:44.061Z,7.53
2022-10-01T18:24:12.111Z,7.63
2022-10-01T18:26:42.915Z,8.02
2022-10-01T18:29:16.108Z,7.70
2022-10-01T18:31:44.365Z,7.57
2022-10-01T18:34:20.790Z,7.38
2022-10-01T18:36:56.754Z,7.13
2022-10-01T18:39:32.358Z,7.10
2022-10-01T18:42:03.866Z,6.82
2022-10-01T18:44:31.925Z,7.75
2022-10-01T18:47:15.427Z,6.60
2022-10-01T18:50:03.259Z,7.03
2022-10-01T18:52:41.788Z,7.05
2022-10-01T18:55:40.409Z,7.80
2022-10-01T18:58:40.374Z,7.72
2022-10-01T19:01:21.350Z,8.82
2022-10-01T19:04:23.420Z,8.80
2022-10-01T19:07:02.354Z,8.25
2022-10-01T19:09:41.142Z,9.77
2022-10-01T19:12:28.926Z,10.30
2022-10-01T19:15:07.168Z,9.02
2022-10-01T19:18:00.399Z,8.13
2022-10-01T19:20:52.670Z,7.65
2022-10-01T19:23:52.276Z,8.23
2022-10-01T19:26:26.637Z,8.13
2022-10-01T19:29:10.637Z,8.40
2022-10-01T19:31:48.829Z,8.07
2022-10-01T19:34:21.629Z,8.60
2022-10-01T19:36:55.095Z,8.40
2022-10-01T19:39:26.562Z,9.15
2022-10-01T19:41:58.394Z,8.85
2022-10-01T19:44:32.155Z,9.23
2022-10-01T19:47:15.226Z,9.10
2022-10-01T19:49:46.459Z,8.48
2022-10-01T19:52:15.619Z,9.13
2022-10-01T19:54:47.302Z,9.77
2022-10-01T19:57:21.754Z,9.90
2022-10-01T19:59:52.472Z,9.80
2022-10-01T20:02:32.520Z,10.48
2022-10-01T20:05:05.342Z,11.55
2022-10-01T20:07:41.189Z,11.60
2022-10-01T20:10:19.280Z,11.73
2022-10-01T20:12:53.864Z,10.82
2022-10-01T20:15:32.391Z,10.82
2022-10-01T20:18:10.979Z,12.55
2022-10-01T20:20:46.482Z,12.40
2022-10-01T20:23:41.984Z,11.02
2022-10-01T20:26:23.363Z,11.45
2022-10-01T20:29:16.030Z,12.40
2022-10-01T20:31:52.863Z,11.80
2022-10-01T20:34:28.494Z,13.15
2022-10-01T20:37:07.741Z,11.90
2022-10-01T20:39:40.405Z,11.82
2022-10-01T20:42:15.223Z,12.90
2022-10-01T20:44:43.189Z,13.80
2022-10-01T20:47:19.970Z,13.90
2022-10-01T20:49:55.784Z,15.98
2022-10-01T20:52:31.645Z,15.40
2022-10-01T20:55:03.391Z,16.45
2022-10-01T21:00:06.889Z,17.98
2022-10-01T21:02:41.887Z,17.02
2022-10-01T21:05:15.919Z,17.25
2022-10-01T21:07:50.730Z,15.27
2022-10-01T21:10:25.690Z,15.45
2022-10-01T21:13:02.331Z,15.77
2022-10-01T21:15:43.558Z,15.55
2022-10-01T21:18:20.436Z,16.33
2022-10-01T21:20:59.695Z,16.52
2022-10-01T21:23:55.373Z,15.98
2022-10-01T21:26:32.724Z,16.17
2022-10-01T21:29:19.828Z,16.85
2022-10-01T21:32:00.630Z,14.43
2022-10-01T21:34:36.619Z,14.20
2022-10-01T21:37:13.319Z,16.52
2022-10-01T21:39:48.329Z,16.52
2022-10-01T21:42:18.871Z,15.75
2022-10-01T21:45:05.555Z,17.48
2022-10-01T21:47:49.563Z,15.90
2022-10-01T21:50:26.577Z,17.55
2022-10-01T21:53:10.197Z,17.20
2022-10-01T21:55:57.061Z,15.38
2022-10-01T21:58:41.123Z,17.13
2022-10-01T22:01:18.192Z,14.30
2022-10-01T22:03:50.664Z,15.90
2022-10-01T22:06:23.276Z,15.48
2022-10-01T22:09:03.959Z,15.85
2022-10-01T22:11:36.936Z,15.95
2022-10-01T22:14:12.677Z,15.70
2022-10-01T22:16:49.914Z,14.68
2022-10-01T22:19:21.471Z,14.38
2022-10-01T22:21:56.049Z,14.38
2022-10-01T22:24:31.976Z,14.30
2022-10-01T22:27:07.421Z,14.13
2022-10-01T22:29:40.911Z,15.10
2022-10-01T22:32:11.959Z,13.90
2022-10-01T22:34:43.976Z,13.93
2022-10-01T22:37:18.595Z,15.63
2022-10-01T22:39:54.279Z,13.43
2022-10-01T22:42:27.806Z,13.60
2022-10-01T22:44:57.242Z,14.60
2022-10-01T22:47:44.516Z,14.45
2022-10-01T22:50:29.605Z,14.60
2022-10-01T22:53:19.090Z,14.52
2022-10-01T22:55:53.650Z,15.55
2022-10-01T22:58:32.762Z,15.32
2022-10-01T23:01:11.308Z,14.55
2022-10-01T23:03:53.949Z,15.00
2022-10-01T23:06:29.137Z,16.75
2022-10-01T23:09:03.175Z,15.25
2022-10-01T23:11:42.339Z,15.65
2022-10-01T23:14:28.253Z,15.88
2022-10-01T23:17:01.727Z,17.15
2022-10-01T23:19:42.527Z,15.77
2022-10-01T23:22:19.908Z,16.42
2022-10-01T23:25:04.979Z,15.82
2022-10-01T23:27:45.379Z,16.40
2022-10-01T23:30:15.746Z,15.60
2022-10-01T23:33:25.534Z,17.27
2022-10-01T23:36:05.342Z,18.17
2022-10-01T23:38:56.460Z,16.17
2022-10-01T23:41:33.072Z,17.45
2022-10-01T23:44:10.331Z,16.02
2022-10-01T23:46:43.119Z,16.35
2022-10-01T23:49:15.224Z,16.25
2022-10-01T23:51:48.680Z,17.52
2022-10-01T23:54:23.948Z,17.80
2022-10-01T23:56:56.487Z,18.02
2022-10-01T23:59:31.457Z,20.27
